sensor_id;sensor_type;location;lat;lon;timestamp;P1;durP1;ratioP1;P2;durP2;ratioP2
27223;SDS011;14965;50.660;13.226;2022-09-24T00:00:39;8.18;;;5.95;;
27223;SDS011;14965;50.660;13.226;2022-09-24T00:03:06;12.45;;;6.38;;
27223;SDS011;14965;50.660;13.226;2022-09-24T00:05:35;9.85;;;5.85;;
27223;SDS011;14965;50.660;13.226;2022-09-24T00:08:02;7.88;;;5.75;;
27223;SDS011;14965;50.660;13.226;2022-09-24T00:10:27;10.25;;;5.85;;
27223;SDS011;14965;50.660;13.226;2022-09-24T00:12:53;8.57;;;6.05;;
27223;SDS011;14965;50.660;13.226;2022-09-24T00:15:19;8.88;;;5.90;;
27223;SDS011;14965;50.660;13.226;2022-09-24T00:17:45;8.45;;;6.15;;
27223;SDS011;14965;50.660;13.226;2022-09-24T00:20:12;8.48;;;5.68;;
27223;SDS011;14965;50.660;13.226;2022-09-24T00:22:38;10.02;;;6.35;;
27223;SDS011;14965;50.660;13.226;2022-09-24T00:25:04;8.13;;;5.78;;
27223;SDS011;14965;50.660;13.226;2022-09-24T00:27:31;8.90;;;6.30;;
27223;SDS011;14965;50.660;13.226;2022-09-24T00:29:57;10.75;;;6.38;;
27223;SDS011;14965;50.660;13.226;2022-09-24T00:32:23;9.57;;;6.53;;
27223;SDS011;14965;50.660;13.226;2022-09-24T00:34:49;8.90;;;6.20;;
27223;SDS011;14965;50.660;13.226;2022-09-24T00:37:16;9.80;;;6.18;;
27223;SDS011;14965;50.660;13.226;2022-09-24T00:39:42;9.77;;;6.65;;
27223;SDS011;14965;50.660;13.226;2022-09-24T00:42:08;10.25;;;6.30;;
27223;SDS011;14965;50.660;13.226;2022-09-24T00:47:22;10.10;;;6.65;;
27223;SDS011;14965;50.660;13.226;2022-09-24T00:49:55;8.50;;;6.07;;
27223;SDS011;14965;50.660;13.226;2022-09-24T00:52:33;9.15;;;6.18;;
27223;SDS011;14965;50.660;13.226;2022-09-24T00:55:05;11.95;;;7.50;;
27223;SDS011;14965;50.660;13.226;2022-09-24T00:57:33;9.15;;;6.75;;
27223;SDS011;14965;50.660;13.226;2022-09-24T00:59:59;11.38;;;7.28;;
27223;SDS011;14965;50.660;13.226;2022-09-24T01:02:25;10.15;;;6.90;;
27223;SDS011;14965;50.660;13.226;2022-09-24T01:04:51;12.60;;;7.30;;
27223;SDS011;14965;50.660;13.226;2022-09-24T01:07:18;9.65;;;6.97;;
27223;SDS011;14965;50.660;13.226;2022-09-24T01:09:46;12.15;;;7.28;;
27223;SDS011;14965;50.660;13.226;2022-09-24T01:12:13;10.35;;;6.75;;
27223;SDS011;14965;50.660;13.226;2022-09-24T01:14:54;10.85;;;7.63;;
27223;SDS011;14965;50.660;13.226;2022-09-24T01:17:34;11.10;;;7.18;;
27223;SDS011;14965;50.660;13.226;2022-09-24T01:20:15;10.07;;;7.07;;
27223;SDS011;14965;50.660;13.226;2022-09-24T01:23:26;12.00;;;7.65;;
27223;SDS011;14965;50.660;13.226;2022-09-24T01:26:16;11.35;;;7.57;;
27223;SDS011;14965;50.660;13.226;2022-09-24T01:29:25;11.85;;;7.95;;
27223;SDS011;14965;50.660;13.226;2022-09-24T01:32:00;10.27;;;7.45;;
27223;SDS011;14965;50.660;13.226;2022-09-24T01:34:35;11.27;;;7.47;;
27223;SDS011;14965;50.660;13.226;2022-09-24T01:37:08;12.45;;;7.72;;
27223;SDS011;14965;50.660;13.226;2022-09-24T01:39:38;10.52;;;7.38;;
27223;SDS011;14965;50.660;13.226;2022-09-24T01:42:08;12.32;;;8.30;;
27223;SDS011;14965;50.660;13.226;2022-09-24T01:44:38;11.18;;;7.72;;
27223;SDS011;14965;50.660;13.226;2022-09-24T01:47:07;14.93;;;7.60;;
27223;SDS011;14965;50.660;13.226;2022-09-24T01:49:35;10.50;;;7.68;;
27223;SDS011;14965;50.660;13.226;2022-09-24T01:52:02;14.45;;;8.48;;
27223;SDS011;14965;50.660;13.226;2022-09-24T01:54:34;11.40;;;7.40;;
27223;SDS011;14965;50.660;13.226;2022-09-24T01:57:06;9.75;;;7.53;;
27223;SDS011;14965;50.660;13.226;2022-09-24T01:59:41;12.07;;;7.72;;
27223;SDS011;14965;50.660;13.226;2022-09-24T02:02:15;10.60;;;7.32;;
27223;SDS011;14965;50.660;13.226;2022-09-24T02:04:50;14.43;;;8.23;;
27223;SDS011;14965;50.660;13.226;2022-09-24T02:07:29;11.40;;;7.55;;
27223;SDS011;14965;50.660;13.226;2022-09-24T02:10:02;12.60;;;7.45;;
27223;SDS011;14965;50.660;13.226;2022-09-24T02:12:30;13.10;;;7.40;;
27223;SDS011;14965;50.660;13.226;2022-09-24T02:15:04;12.55;;;8.95;;
27223;SDS011;14965;50.660;13.226;2022-09-24T02:17:36;15.95;;;9.02;;
27223;SDS011;14965;50.660;13.226;2022-09-24T02:20:09;11.93;;;8.02;;
27223;SDS011;14965;50.660;13.226;2022-09-24T02:22:39;12.75;;;8.32;;
27223;SDS011;14965;50.660;13.226;2022-09-24T02:25:08;12.07;;;8.48;;
27223;SDS011;14965;50.660;13.226;2022-09-24T02:27:39;13.30;;;9.25;;
27223;SDS011;14965;50.660;13.226;2022-09-24T02:30:07;11.75;;;7.85;;
27223;SDS011;14965;50.660;13.226;2022-09-24T02:37:33;12.73;;;8.85;;
27223;SDS011;14965;50.660;13.226;2022-09-24T02:40:02;11.30;;;8.02;;
27223;SDS011;14965;50.660;13.226;2022-09-24T02:42:31;14.00;;;8.57;;
27223;SDS011;14965;50.660;13.226;2022-09-24T02:44:57;14.70;;;9.40;;
27223;SDS011;14965;50.660;13.226;2022-09-24T02:47:24;13.77;;;9.43;;
27223;SDS011;14965;50.660;13.226;2022-09-24T02:49:50;11.95;;;8.35;;
27223;SDS011;14965;50.660;13.226;2022-09-24T02:52:16;14.95;;;8.85;;
27223;SDS011;14965;50.660;13.226;2022-09-24T02:54:42;11.45;;;8.82;;
27223;SDS011;14965;50.660;13.226;2022-09-24T02:57:07;14.65;;;8.98;;
27223;SDS011;14965;50.660;13.226;2022-09-24T02:59:33;14.43;;;9.35;;
27223;SDS011;14965;50.660;13.226;2022-09-24T03:01:59;10.90;;;8.50;;
27223;SDS011;14965;50.660;13.226;2022-09-24T03:04:27;14.52;;;8.13;;
27223;SDS011;14965;50.660;13.226;2022-09-24T03:06:53;12.48;;;8.40;;
27223;SDS011;14965;50.660;13.226;2022-09-24T03:09:19;12.50;;;8.15;;
27223;SDS011;14965;50.660;13.226;2022-09-24T03:11:44;13.57;;;8.65;;
27223;SDS011;14965;50.660;13.226;2022-09-24T03:14:10;13.70;;;9.02;;
27223;SDS011;14965;50.660;13.226;2022-09-24T03:16:36;13.73;;;9.07;;
27223;SDS011;14965;50.660;13.226;2022-09-24T03:19:02;12.48;;;8.50;;
27223;SDS011;14965;50.660;13.226;2022-09-24T03:21:29;13.40;;;8.40;;
27223;SDS011;14965;50.660;13.226;2022-09-24T03:23:55;10.98;;;7.97;;
27223;SDS011;14965;50.660;13.226;2022-09-24T03:26:21;13.25;;;8.13;;
27223;SDS011;14965;50.660;13.226;2022-09-24T03:28:47;10.20;;;7.13;;
27223;SDS011;14965;50.660;13.226;2022-09-24T03:31:13;12.80;;;7.78;;
27223;SDS011;14965;50.660;13.226;2022-09-24T03:33:40;11.02;;;7.95;;
27223;SDS011;14965;50.660;13.226;2022-09-24T03:36:08;12.07;;;7.88;;
27223;SDS011;14965;50.660;13.226;2022-09-24T03:38:38;11.15;;;7.97;;
27223;SDS011;14965;50.660;13.226;2022-09-24T03:41:07;13.85;;;7.72;;
27223;SDS011;14965;50.660;13.226;2022-09-24T03:43:34;11.95;;;7.93;;
27223;SDS011;14965;50.660;13.226;2022-09-24T03:46:01;12.27;;;7.97;;
27223;SDS011;14965;50.660;13.226;2022-09-24T03:48:27;10.25;;;7.72;;
27223;SDS011;14965;50.660;13.226;2022-09-24T03:50:53;10.80;;;7.63;;
27223;SDS011;14965;50.660;13.226;2022-09-24T03:53:19;11.57;;;8.15;;
27223;SDS011;14965;50.660;13.226;2022-09-24T03:55:51;14.30;;;8.13;;
27223;SDS011;14965;50.660;13.226;2022-09-24T03:58:19;14.00;;;7.80;;
27223;SDS011;14965;50.660;13.226;2022-09-24T04:00:44;13.85;;;9.43;;
27223;SDS011;14965;50.660;13.226;2022-09-24T04:03:11;12.05;;;9.45;;
27223;SDS011;14965;50.660;13.226;2022-09-24T04:05:37;10.55;;;7.90;;
27223;SDS011;14965;50.660;13.226;2022-09-24T04:08:03;12.27;;;8.18;;
27223;SDS011;14965;50.660;13.226;2022-09-24T04:10:29;10.70;;;7.60;;
27223;SDS011;14965;50.660;13.226;2022-09-24T04:12:57;11.60;;;7.30;;
27223;SDS011;14965;50.660;13.226;2022-09-24T04:15:22;11.95;;;7.40;;
27223;SDS011;14965;50.660;13.226;2022-09-24T04:17:49;13.80;;;7.45;;
27223;SDS011;14965;50.660;13.226;2022-09-24T04:20:15;13.18;;;7.72;;
27223;SDS011;14965;50.660;13.226;2022-09-24T04:22:42;13.07;;;7.55;;
27223;SDS011;14965;50.660;13.226;2022-09-24T04:25:08;14.05;;;7.53;;
27223;SDS011;14965;50.660;13.226;2022-09-24T04:27:33;11.23;;;7.65;;
27223;SDS011;14965;50.660;13.226;2022-09-24T04:30:01;9.98;;;7.53;;
27223;SDS011;14965;50.660;13.226;2022-09-24T04:32:27;10.38;;;6.95;;
27223;SDS011;14965;50.660;13.226;2022-09-24T04:34:52;10.43;;;6.82;;
27223;SDS011;14965;50.660;13.226;2022-09-24T04:37:18;9.63;;;7.13;;
27223;SDS011;14965;50.660;13.226;2022-09-24T04:39:44;13.18;;;6.90;;
27223;SDS011;14965;50.660;13.226;2022-09-24T04:42:14;8.68;;;6.22;;
27223;SDS011;14965;50.660;13.226;2022-09-24T04:44:41;9.00;;;6.43;;
27223;SDS011;14965;50.660;13.226;2022-09-24T04:47:08;11.02;;;6.93;;
27223;SDS011;14965;50.660;13.226;2022-09-24T04:49:34;9.30;;;6.55;;
27223;SDS011;14965;50.660;13.226;2022-09-24T04:52:00;10.27;;;7.00;;
27223;SDS011;14965;50.660;13.226;2022-09-24T04:54:26;10.05;;;6.80;;
27223;SDS011;14965;50.660;13.226;2022-09-24T04:56:51;11.30;;;6.88;;
27223;SDS011;14965;50.660;13.226;2022-09-24T04:59:17;11.57;;;7.40;;
27223;SDS011;14965;50.660;13.226;2022-09-24T05:01:43;12.35;;;8.88;;
27223;SDS011;14965;50.660;13.226;2022-09-24T05:04:10;19.75;;;13.27;;
27223;SDS011;14965;50.660;13.226;2022-09-24T05:06:36;17.33;;;13.15;;
27223;SDS011;14965;50.660;13.226;2022-09-24T05:09:02;17.23;;;11.95;;
27223;SDS011;14965;50.660;13.226;2022-09-24T05:11:27;12.57;;;10.18;;
27223;SDS011;14965;50.660;13.226;2022-09-24T05:13:53;12.48;;;10.15;;
27223;SDS011;14965;50.660;13.226;2022-09-24T05:16:19;13.50;;;9.93;;
27223;SDS011;14965;50.660;13.226;2022-09-24T05:18:45;11.13;;;8.70;;
27223;SDS011;14965;50.660;13.226;2022-09-24T05:21:12;10.00;;;6.68;;
27223;SDS011;14965;50.660;13.226;2022-09-24T05:23:38;8.32;;;7.10;;
27223;SDS011;14965;50.660;13.226;2022-09-24T05:26:04;9.10;;;6.97;;
27223;SDS011;14965;50.660;13.226;2022-09-24T05:28:30;10.73;;;6.90;;
27223;SDS011;14965;50.660;13.226;2022-09-24T05:30:55;11.30;;;8.27;;
27223;SDS011;14965;50.660;13.226;2022-09-24T05:33:21;15.02;;;9.57;;
27223;SDS011;14965;50.660;13.226;2022-09-24T05:35:51;11.43;;;8.77;;
27223;SDS011;14965;50.660;13.226;2022-09-24T05:38:19;11.57;;;7.43;;
27223;SDS011;14965;50.660;13.226;2022-09-24T05:40:45;9.25;;;7.10;;
27223;SDS011;14965;50.660;13.226;2022-09-24T05:43:11;12.25;;;6.80;;
27223;SDS011;14965;50.660;13.226;2022-09-24T05:45:36;12.57;;;7.13;;
27223;SDS011;14965;50.660;13.226;2022-09-24T05:48:02;11.13;;;7.38;;
27223;SDS011;14965;50.660;13.226;2022-09-24T05:50:29;9.27;;;7.25;;
27223;SDS011;14965;50.660;13.226;2022-09-24T05:52:55;9.85;;;7.22;;
27223;SDS011;14965;50.660;13.226;2022-09-24T05:55:23;10.73;;;7.43;;
27223;SDS011;14965;50.660;13.226;2022-09-24T05:57:48;9.55;;;7.32;;
27223;SDS011;14965;50.660;13.226;2022-09-24T06:00:14;11.18;;;6.57;;
27223;SDS011;14965;50.660;13.226;2022-09-24T06:02:40;10.30;;;6.95;;
27223;SDS011;14965;50.660;13.226;2022-09-24T06:05:07;10.38;;;6.80;;
27223;SDS011;14965;50.660;13.226;2022-09-24T06:07:34;8.45;;;6.22;;
27223;SDS011;14965;50.660;13.226;2022-09-24T06:10:00;8.88;;;6.40;;
27223;SDS011;14965;50.660;13.226;2022-09-24T06:12:27;9.13;;;5.72;;
27223;SDS011;14965;50.660;13.226;2022-09-24T06:14:53;9.15;;;6.10;;
27223;SDS011;14965;50.660;13.226;2022-09-24T06:17:18;7.90;;;6.32;;
27223;SDS011;14965;50.660;13.226;2022-09-24T06:19:45;13.80;;;8.50;;
27223;SDS011;14965;50.660;13.226;2022-09-24T06:22:10;11.27;;;8.65;;
27223;SDS011;14965;50.660;13.226;2022-09-24T06:24:36;12.52;;;7.13;;
27223;SDS011;14965;50.660;13.226;2022-09-24T06:27:02;11.98;;;7.90;;
27223;SDS011;14965;50.660;13.226;2022-09-24T06:29:30;10.85;;;7.80;;
27223;SDS011;14965;50.660;13.226;2022-09-24T06:31:56;9.50;;;6.93;;
27223;SDS011;14965;50.660;13.226;2022-09-24T06:34:21;10.35;;;6.78;;
27223;SDS011;14965;50.660;13.226;2022-09-24T06:36:47;9.02;;;5.72;;
27223;SDS011;14965;50.660;13.226;2022-09-24T06:39:17;9.35;;;6.38;;
27223;SDS011;14965;50.660;13.226;2022-09-24T06:41:43;8.48;;;6.03;;
27223;SDS011;14965;50.660;13.226;2022-09-24T06:44:10;7.97;;;5.82;;
27223;SDS011;14965;50.660;13.226;2022-09-24T06:46:37;7.95;;;6.18;;
27223;SDS011;14965;50.660;13.226;2022-09-24T06:49:02;10.70;;;5.47;;
27223;SDS011;14965;50.660;13.226;2022-09-24T06:51:28;8.90;;;5.95;;
27223;SDS011;14965;50.660;13.226;2022-09-24T06:53:54;8.07;;;5.70;;
27223;SDS011;14965;50.660;13.226;2022-09-24T06:56:20;10.38;;;7.68;;
27223;SDS011;14965;50.660;13.226;2022-09-24T06:58:46;13.10;;;9.50;;
27223;SDS011;14965;50.660;13.226;2022-09-24T07:01:11;10.95;;;6.85;;
27223;SDS011;14965;50.660;13.226;2022-09-24T07:03:39;10.35;;;6.47;;
27223;SDS011;14965;50.660;13.226;2022-09-24T07:06:05;9.25;;;5.70;;
27223;SDS011;14965;50.660;13.226;2022-09-24T07:08:31;8.30;;;5.20;;
27223;SDS011;14965;50.660;13.226;2022-09-24T07:10:57;7.70;;;5.53;;
27223;SDS011;14965;50.660;13.226;2022-09-24T07:13:23;7.20;;;5.47;;
27223;SDS011;14965;50.660;13.226;2022-09-24T07:15:49;5.50;;;4.78;;
27223;SDS011;14965;50.660;13.226;2022-09-24T07:18:17;9.20;;;4.75;;
27223;SDS011;14965;50.660;13.226;2022-09-24T07:20:49;9.35;;;4.68;;
27223;SDS011;14965;50.660;13.226;2022-09-24T07:23:16;5.32;;;4.10;;
27223;SDS011;14965;50.660;13.226;2022-09-24T07:25:43;6.60;;;3.92;;
27223;SDS011;14965;50.660;13.226;2022-09-24T07:28:10;6.55;;;4.47;;
27223;SDS011;14965;50.660;13.226;2022-09-24T07:30:38;8.33;;;4.30;;
27223;SDS011;14965;50.660;13.226;2022-09-24T07:33:04;5.65;;;4.00;;
27223;SDS011;14965;50.660;13.226;2022-09-24T07:35:31;6.47;;;4.25;;
27223;SDS011;14965;50.660;13.226;2022-09-24T07:38:01;5.90;;;4.05;;
27223;SDS011;14965;50.660;13.226;2022-09-24T07:40:29;4.90;;;3.38;;
27223;SDS011;14965;50.660;13.226;2022-09-24T07:42:56;8.05;;;4.20;;
27223;SDS011;14965;50.660;13.226;2022-09-24T07:45:22;6.35;;;3.83;;
27223;SDS011;14965;50.660;13.226;2022-09-24T07:47:55;6.57;;;4.20;;
27223;SDS011;14965;50.660;13.226;2022-09-24T07:50:22;5.13;;;3.60;;
27223;SDS011;14965;50.660;13.226;2022-09-24T07:52:49;5.25;;;4.20;;
27223;SDS011;14965;50.660;13.226;2022-09-24T07:55:16;7.03;;;3.80;;
27223;SDS011;14965;50.660;13.226;2022-09-24T07:57:44;5.78;;;3.80;;
27223;SDS011;14965;50.660;13.226;2022-09-24T08:00:11;4.93;;;3.78;;
27223;SDS011;14965;50.660;13.226;2022-09-24T08:02:39;4.88;;;3.90;;
27223;SDS011;14965;50.660;13.226;2022-09-24T08:05:05;7.10;;;3.90;;
27223;SDS011;14965;50.660;13.226;2022-09-24T08:07:32;7.18;;;4.30;;
27223;SDS011;14965;50.660;13.226;2022-09-24T08:09:57;5.30;;;4.00;;
27223;SDS011;14965;50.660;13.226;2022-09-24T08:12:24;4.75;;;3.70;;
27223;SDS011;14965;50.660;13.226;2022-09-24T08:14:50;6.57;;;3.67;;
27223;SDS011;14965;50.660;13.226;2022-09-24T08:17:16;6.03;;;3.92;;
27223;SDS011;14965;50.660;13.226;2022-09-24T08:19:42;6.63;;;3.78;;
27223;SDS011;14965;50.660;13.226;2022-09-24T08:22:08;4.25;;;3.65;;
27223;SDS011;14965;50.660;13.226;2022-09-24T08:24:33;15.82;;;4.47;;
27223;SDS011;14965;50.660;13.226;2022-09-24T08:26:59;5.00;;;3.60;;
27223;SDS011;14965;50.660;13.226;2022-09-24T08:29:26;4.35;;;3.50;;
27223;SDS011;14965;50.660;13.226;2022-09-24T08:31:52;6.95;;;4.60;;
27223;SDS011;14965;50.660;13.226;2022-09-24T08:34:18;5.15;;;3.63;;
27223;SDS011;14965;50.660;13.226;2022-09-24T08:36:44;5.93;;;3.90;;
27223;SDS011;14965;50.660;13.226;2022-09-24T08:39:09;8.27;;;4.18;;
27223;SDS011;14965;50.660;13.226;2022-09-24T08:41:43;5.18;;;3.88;;
27223;SDS011;14965;50.660;13.226;2022-09-24T08:44:19;6.10;;;4.15;;
27223;SDS011;14965;50.660;13.226;2022-09-24T08:47:01;6.63;;;4.10;;
27223;SDS011;14965;50.660;13.226;2022-09-24T08:49:36;6.50;;;3.90;;
27223;SDS011;14965;50.660;13.226;2022-09-24T08:52:22;4.43;;;3.63;;
27223;SDS011;14965;50.660;13.226;2022-09-24T08:55:03;16.63;;;4.22;;
27223;SDS011;14965;50.660;13.226;2022-09-24T08:57:37;5.75;;;3.88;;
27223;SDS011;14965;50.660;13.226;2022-09-24T09:00:15;6.45;;;4.03;;
27223;SDS011;14965;50.660;13.226;2022-09-24T09:02:42;5.55;;;4.10;;
27223;SDS011;14965;50.660;13.226;2022-09-24T09:05:21;9.63;;;3.80;;
27223;SDS011;14965;50.660;13.226;2022-09-24T09:07:59;5.97;;;4.38;;
27223;SDS011;14965;50.660;13.226;2022-09-24T09:10:33;5.68;;;4.32;;
27223;SDS011;14965;50.660;13.226;2022-09-24T09:13:05;5.43;;;3.83;;
27223;SDS011;14965;50.660;13.226;2022-09-24T09:15:39;4.50;;;3.78;;
27223;SDS011;14965;50.660;13.226;2022-09-24T09:18:11;5.07;;;3.95;;
27223;SDS011;14965;50.660;13.226;2022-09-24T09:20:45;7.35;;;4.78;;
27223;SDS011;14965;50.660;13.226;2022-09-24T09:23:14;5.45;;;4.10;;
27223;SDS011;14965;50.660;13.226;2022-09-24T09:25:45;5.38;;;4.07;;
27223;SDS011;14965;50.660;13.226;2022-09-24T09:28:16;6.45;;;3.92;;
27223;SDS011;14965;50.660;13.226;2022-09-24T09:30:45;8.73;;;4.13;;
27223;SDS011;14965;50.660;13.226;2022-09-24T09:33:26;6.35;;;3.50;;
27223;SDS011;14965;50.660;13.226;2022-09-24T09:36:10;7.35;;;3.88;;
27223;SDS011;14965;50.660;13.226;2022-09-24T09:39:04;11.00;;;5.70;;
27223;SDS011;14965;50.660;13.226;2022-09-24T09:41:51;8.40;;;6.22;;
27223;SDS011;14965;50.660;13.226;2022-09-24T09:44:35;9.52;;;6.20;;
27223;SDS011;14965;50.660;13.226;2022-09-24T09:47:18;10.25;;;6.53;;
27223;SDS011;14965;50.660;13.226;2022-09-24T09:49:55;10.55;;;6.05;;
27223;SDS011;14965;50.660;13.226;2022-09-24T09:52:30;10.75;;;7.15;;
27223;SDS011;14965;50.660;13.226;2022-09-24T09:55:01;7.70;;;5.80;;
27223;SDS011;14965;50.660;13.226;2022-09-24T09:57:28;10.32;;;6.55;;
27223;SDS011;14965;50.660;13.226;2022-09-24T09:59:54;10.30;;;6.50;;
27223;SDS011;14965;50.660;13.226;2022-09-24T10:02:22;7.00;;;5.70;;
27223;SDS011;14965;50.660;13.226;2022-09-24T10:04:53;7.82;;;5.35;;
27223;SDS011;14965;50.660;13.226;2022-09-24T10:07:22;10.10;;;5.28;;
27223;SDS011;14965;50.660;13.226;2022-09-24T10:09:57;11.23;;;5.53;;
27223;SDS011;14965;50.660;13.226;2022-09-24T10:12:26;8.93;;;5.07;;
27223;SDS011;14965;50.660;13.226;2022-09-24T10:14:57;9.40;;;5.28;;
27223;SDS011;14965;50.660;13.226;2022-09-24T10:17:28;9.98;;;5.10;;
27223;SDS011;14965;50.660;13.226;2022-09-24T10:20:00;8.35;;;5.18;;
27223;SDS011;14965;50.660;13.226;2022-09-24T10:22:32;7.57;;;5.05;;
27223;SDS011;14965;50.660;13.226;2022-09-24T10:27:29;6.95;;;5.10;;
27223;SDS011;14965;50.660;13.226;2022-09-24T10:29:59;9.13;;;5.03;;
27223;SDS011;14965;50.660;13.226;2022-09-24T10:32:30;10.18;;;5.28;;
27223;SDS011;14965;50.660;13.226;2022-09-24T10:34:56;9.75;;;5.72;;
27223;SDS011;14965;50.660;13.226;2022-09-24T10:37:23;8.60;;;5.75;;
27223;SDS011;14965;50.660;13.226;2022-09-24T10:39:57;8.00;;;4.55;;
27223;SDS011;14965;50.660;13.226;2022-09-24T10:42:25;8.65;;;5.07;;
27223;SDS011;14965;50.660;13.226;2022-09-24T10:44:52;11.07;;;5.22;;
27223;SDS011;14965;50.660;13.226;2022-09-24T10:47:26;6.35;;;4.55;;
27223;SDS011;14965;50.660;13.226;2022-09-24T10:50:17;8.13;;;4.95;;
27223;SDS011;14965;50.660;13.226;2022-09-24T10:52:55;6.50;;;4.72;;
27223;SDS011;14965;50.660;13.226;2022-09-24T10:55:37;8.00;;;5.25;;
27223;SDS011;14965;50.660;13.226;2022-09-24T10:58:19;7.50;;;5.90;;
27223;SDS011;14965;50.660;13.226;2022-09-24T11:01:13;7.97;;;5.35;;
27223;SDS011;14965;50.660;13.226;2022-09-24T11:03:53;7.03;;;5.20;;
27223;SDS011;14965;50.660;13.226;2022-09-24T11:06:58;7.75;;;5.10;;
27223;SDS011;14965;50.660;13.226;2022-09-24T11:09:54;7.90;;;5.68;;
27223;SDS011;14965;50.660;13.226;2022-09-24T11:12:30;8.30;;;4.55;;
27223;SDS011;14965;50.660;13.226;2022-09-24T11:15:15;8.70;;;4.50;;
27223;SDS011;14965;50.660;13.226;2022-09-24T11:18:08;6.63;;;4.90;;
27223;SDS011;14965;50.660;13.226;2022-09-24T11:20:56;6.55;;;4.47;;
27223;SDS011;14965;50.660;13.226;2022-09-24T11:27:06;6.90;;;4.45;;
27223;SDS011;14965;50.660;13.226;2022-09-24T11:30:03;8.82;;;5.05;;
27223;SDS011;14965;50.660;13.226;2022-09-24T11:32:39;6.82;;;3.88;;
27223;SDS011;14965;50.660;13.226;2022-09-24T11:35:28;6.05;;;4.30;;
27223;SDS011;14965;50.660;13.226;2022-09-24T11:38:14;5.83;;;4.57;;
27223;SDS011;14965;50.660;13.226;2022-09-24T11:40:49;5.68;;;4.40;;
27223;SDS011;14965;50.660;13.226;2022-09-24T11:43:37;8.20;;;4.60;;
27223;SDS011;14965;50.660;13.226;2022-09-24T11:46:57;5.38;;;4.43;;
27223;SDS011;14965;50.660;13.226;2022-09-24T11:49:47;5.45;;;3.95;;
27223;SDS011;14965;50.660;13.226;2022-09-24T11:52:49;6.95;;;4.35;;
27223;SDS011;14965;50.660;13.226;2022-09-24T11:55:27;7.55;;;4.25;;
27223;SDS011;14965;50.660;13.226;2022-09-24T11:58:05;10.55;;;6.93;;
27223;SDS011;14965;50.660;13.226;2022-09-24T12:00:43;11.52;;;4.53;;
27223;SDS011;14965;50.660;13.226;2022-09-24T12:03:19;9.27;;;4.10;;
27223;SDS011;14965;50.660;13.226;2022-09-24T12:05:50;6.30;;;4.18;;
27223;SDS011;14965;50.660;13.226;2022-09-24T12:08:24;6.45;;;4.63;;
27223;SDS011;14965;50.660;13.226;2022-09-24T12:10:58;4.68;;;3.40;;
27223;SDS011;14965;50.660;13.226;2022-09-24T12:13:32;8.05;;;4.43;;
27223;SDS011;14965;50.660;13.226;2022-09-24T12:16:05;11.45;;;4.90;;
27223;SDS011;14965;50.660;13.226;2022-09-24T12:18:37;5.47;;;4.53;;
27223;SDS011;14965;50.660;13.226;2022-09-24T12:21:10;8.68;;;4.88;;
27223;SDS011;14965;50.660;13.226;2022-09-24T12:23:42;6.22;;;4.20;;
27223;SDS011;14965;50.660;13.226;2022-09-24T12:26:12;8.82;;;4.10;;
27223;SDS011;14965;50.660;13.226;2022-09-24T12:28:42;10.68;;;4.40;;
27223;SDS011;14965;50.660;13.226;2022-09-24T12:33:56;7.20;;;4.10;;
27223;SDS011;14965;50.660;13.226;2022-09-24T12:36:36;5.80;;;4.22;;
27223;SDS011;14965;50.660;13.226;2022-09-24T12:39:19;6.32;;;4.45;;
27223;SDS011;14965;50.660;13.226;2022-09-24T12:41:54;6.43;;;3.90;;
27223;SDS011;14965;50.660;13.226;2022-09-24T12:44:28;9.93;;;4.15;;
27223;SDS011;14965;50.660;13.226;2022-09-24T12:47:01;8.05;;;4.00;;
27223;SDS011;14965;50.660;13.226;2022-09-24T12:49:28;6.50;;;4.53;;
27223;SDS011;14965;50.660;13.226;2022-09-24T12:51:59;5.97;;;4.35;;
27223;SDS011;14965;50.660;13.226;2022-09-24T12:54:29;9.35;;;5.00;;
27223;SDS011;14965;50.660;13.226;2022-09-24T12:57:07;8.48;;;5.80;;
27223;SDS011;14965;50.660;13.226;2022-09-24T12:59:48;7.72;;;5.32;;
27223;SDS011;14965;50.660;13.226;2022-09-24T13:02:18;8.38;;;6.00;;
27223;SDS011;14965;50.660;13.226;2022-09-24T13:04:48;7.95;;;5.45;;
27223;SDS011;14965;50.660;13.226;2022-09-24T13:07:30;8.85;;;6.40;;
27223;SDS011;14965;50.660;13.226;2022-09-24T13:10:10;12.52;;;6.10;;
27223;SDS011;14965;50.660;13.226;2022-09-24T13:12:47;8.85;;;5.50;;
27223;SDS011;14965;50.660;13.226;2022-09-24T13:15:19;6.93;;;5.03;;
27223;SDS011;14965;50.660;13.226;2022-09-24T13:18:05;8.80;;;5.47;;
27223;SDS011;14965;50.660;13.226;2022-09-24T13:20:54;7.85;;;5.70;;
27223;SDS011;14965;50.660;13.226;2022-09-24T13:23:29;7.35;;;5.22;;
27223;SDS011;14965;50.660;13.226;2022-09-24T13:26:08;8.48;;;4.88;;
27223;SDS011;14965;50.660;13.226;2022-09-24T13:28:52;14.02;;;8.60;;
27223;SDS011;14965;50.660;13.226;2022-09-24T13:31:21;11.27;;;7.97;;
27223;SDS011;14965;50.660;13.226;2022-09-24T13:33:57;14.45;;;11.60;;
27223;SDS011;14965;50.660;13.226;2022-09-24T13:36:31;9.98;;;6.55;;
27223;SDS011;14965;50.660;13.226;2022-09-24T13:39:05;9.98;;;5.78;;
27223;SDS011;14965;50.660;13.226;2022-09-24T13:41:40;9.05;;;5.93;;
27223;SDS011;14965;50.660;13.226;2022-09-24T13:44:18;9.82;;;6.95;;
27223;SDS011;14965;50.660;13.226;2022-09-24T13:46:52;10.65;;;8.25;;
27223;SDS011;14965;50.660;13.226;2022-09-24T13:49:25;13.52;;;7.55;;
27223;SDS011;14965;50.660;13.226;2022-09-24T13:51:56;12.45;;;8.43;;
27223;SDS011;14965;50.660;13.226;2022-09-24T13:54:34;12.18;;;8.55;;
27223;SDS011;14965;50.660;13.226;2022-09-24T13:57:13;13.60;;;7.32;;
27223;SDS011;14965;50.660;13.226;2022-09-24T13:59:50;9.00;;;7.05;;
27223;SDS011;14965;50.660;13.226;2022-09-24T14:02:28;9.70;;;6.80;;
27223;SDS011;14965;50.660;13.226;2022-09-24T14:05:01;12.13;;;7.90;;
27223;SDS011;14965;50.660;13.226;2022-09-24T14:07:27;12.68;;;8.00;;
27223;SDS011;14965;50.660;13.226;2022-09-24T14:10:00;13.32;;;7.88;;
27223;SDS011;14965;50.660;13.226;2022-09-24T14:12:30;9.63;;;6.60;;
27223;SDS011;14965;50.660;13.226;2022-09-24T14:14:57;12.20;;;8.27;;
27223;SDS011;14965;50.660;13.226;2022-09-24T14:17:23;14.65;;;8.77;;
27223;SDS011;14965;50.660;13.226;2022-09-24T14:19:52;17.40;;;8.10;;
27223;SDS011;14965;50.660;13.226;2022-09-24T14:22:20;12.00;;;8.00;;
27223;SDS011;14965;50.660;13.226;2022-09-24T14:24:54;12.27;;;7.78;;
27223;SDS011;14965;50.660;13.226;2022-09-24T14:27:28;10.05;;;7.07;;
27223;SDS011;14965;50.660;13.226;2022-09-24T14:30:16;11.60;;;7.72;;
27223;SDS011;14965;50.660;13.226;2022-09-24T14:32:48;10.90;;;7.40;;
27223;SDS011;14965;50.660;13.226;2022-09-24T14:35:19;11.40;;;7.55;;
27223;SDS011;14965;50.660;13.226;2022-09-24T14:37:57;10.80;;;7.50;;
27223;SDS011;14965;50.660;13.226;2022-09-24T14:40:27;13.68;;;7.80;;
27223;SDS011;14965;50.660;13.226;2022-09-24T14:42:53;11.75;;;7.28;;
27223;SDS011;14965;50.660;13.226;2022-09-24T14:45:26;10.05;;;7.35;;
27223;SDS011;14965;50.660;13.226;2022-09-24T14:47:58;13.20;;;7.25;;
27223;SDS011;14965;50.660;13.226;2022-09-24T14:50:25;13.43;;;7.72;;
27223;SDS011;14965;50.660;13.226;2022-09-24T14:52:56;11.60;;;7.07;;
27223;SDS011;14965;50.660;13.226;2022-09-24T14:55:34;12.73;;;7.47;;
27223;SDS011;14965;50.660;13.226;2022-09-24T14:58:02;14.63;;;7.70;;
27223;SDS011;14965;50.660;13.226;2022-09-24T15:00:29;11.82;;;6.93;;
27223;SDS011;14965;50.660;13.226;2022-09-24T15:03:02;16.15;;;7.32;;
27223;SDS011;14965;50.660;13.226;2022-09-24T15:05:35;11.10;;;7.43;;
27223;SDS011;14965;50.660;13.226;2022-09-24T15:08:08;11.50;;;7.25;;